Eko 4 — SVAR8 — position and weather

sailwx.info

Track history (hours):
 
Tides and Currents Weather Stations Pressure Air Temp Water Temp Dewpoint Dewpoint Depression Visibility Wind Speed Wind Dir Waves Ship Positions

Eko 4

Last reported at 2015-May-29 03:28 UTC. Time now 2015-May-29 04:04 UTC.
Position N 38°02' E 023°36'.

Length 88 m; draft 5 m.

Type: Ship (hazmat cat A). MMSI: 240912000.

Date/timePositionNaut miles runAvg speedWind from/ knotsBaromVisibWave heightAir tempDewpointWater temp
2015-May-29 03:28N 38°02' E 023°36'0 0.0
2015-May-28 14:33N 38°01' E 023°35'3 2.8
2015-May-28 13:33N 38°01' E 023°32'3 3.2
2015-May-28 12:33N 37°58' E 023°33'6 6.4
2015-May-28 11:33N 37°53' E 023°38'9 9.3
2015-May-28 10:33N 37°45' E 023°43'106 9.3
2015-May-27 23:09N 36°41' E 025°28'6 9.4
2015-May-27 22:33N 36°35' E 025°30'9 9.2
2015-May-27 21:33N 36°26' E 025°33'70 1.9
2015-May-26 09:06N 35°21' E 025°03'4 6.6
2015-May-26 08:33N 35°25' E 025°04'9 9.2
2015-May-26 07:33N 35°33' E 024°60'10 9.6
2015-May-26 06:30N 35°42' E 024°54'10 9.7
2015-May-26 05:28N 35°51' E 024°48'110 9.2
2015-May-25 17:33N 37°30' E 023°48'9 9.3
2015-May-25 16:33N 37°38' E 023°43'9 8.8
2015-May-25 15:33N 37°46' E 023°39'9 8.9
2015-May-25 14:33N 37°55' E 023°37'7 5.6
2015-May-25 13:19N 38°01' E 023°32'2 2.2
2015-May-25 12:27N 38°01' E 023°35'1 0.1
2015-May-24 21:24N 38°02' E 023°36'2 0.5
2015-May-24 17:18N 38°01' E 023°33'5 6.2
2015-May-24 16:33N 37°57' E 023°36'9 9.3
2015-May-24 15:33N 37°48' E 023°41'153 7.6
2015-May-23 19:31N 35°30' E 025°02'8 7.4
2015-May-23 18:22N 35°21' E 025°03'0 0.0
2015-May-23 03:33N 35°21' E 025°03'0 0.1
2015-May-23 02:33N 35°21' E 025°03'0 0.0
2015-May-23 00:03N 35°21' E 025°03'0 0.0
2015-May-22 23:24N 35°21' E 025°03'0 0.0
2015-May-22 21:32N 35°21' E 025°03'0 0.0
2015-May-22 19:14N 35°21' E 025°03'0 0.0
2015-May-22 17:20N 35°21' E 025°03'0 0.0
2015-May-22 04:22N 35°21' E 025°03'5 5.6
2015-May-22 03:33N 35°25' E 025°05'10 9.8
2015-May-22 02:33N 35°34' E 024°59'1010.0
2015-May-22 01:33N 35°42' E 024°53'1010.0
2015-May-22 00:33N 35°51' E 024°48'10 9.9
2015-May-21 23:33N 35°60' E 024°41'10 9.8
2015-May-21 22:34N 36°08' E 024°35'39 9.5
2015-May-21 18:30N 36°42' E 024°13'9 9.4
2015-May-21 17:33N 36°51' E 024°08'9 9.2
2015-May-21 16:33N 36°59' E 024°04'40 9.1
2015-May-21 12:10N 37°36' E 023°45'6 9.1
2015-May-21 11:33N 37°41' E 023°42'9 9.4
2015-May-21 10:33N 37°49' E 023°37'8 8.1
2015-May-21 09:33N 37°57' E 023°34'5 4.8
2015-May-21 08:32N 38°01' E 023°32'3 1.0
2015-May-21 05:27N 38°02' E 023°36'0 0.1
2015-May-21 04:27N 38°02' E 023°36'0 0.0
2015-May-21 03:24N 38°02' E 023°36'0 0.0
2015-May-21 01:30N 38°02' E 023°36'0 0.0
2015-May-20 22:24N 38°02' E 023°36'1 0.1
2015-May-20 15:30N 38°01' E 023°35'2 1.1
2015-May-20 13:33N 38°02' E 023°32'0 0.0
2015-May-20 11:08N 38°02' E 023°32'0 0.1
2015-May-20 10:31N 38°02' E 023°32'1 1.4
2015-May-20 09:33N 38°00' E 023°33'6 6.3
2015-May-20 08:33N 37°55' E 023°37'2 1.7
2015-May-20 07:33N 37°53' E 023°38'9 9.2
2015-May-20 06:33N 37°45' E 023°43'149 9.3
2015-May-19 14:31N 35°30' E 025°01'10 2.4
2015-May-19 10:28N 35°21' E 025°03'0 0.0
2015-May-19 04:29N 35°21' E 025°03'  
Track history (hours):
 
Tides and Currents Weather Stations Pressure Air Temp Water Temp Dewpoint Dewpoint Depression Visibility Wind Speed Wind Dir Waves Ship Positions

Eko 4

Last reported at 2015-May-29 03:28 UTC. Time now 2015-May-29 04:04 UTC.
Position N 38°02' E 023°36'.

Length 88 m; draft 5 m.

Type: Ship (hazmat cat A). MMSI: 240912000.

Date/timePositionNaut miles runAvg speedWind from/ knotsBaromVisibWave heightAir tempDewpointWater temp
2015-May-29 03:28N 38°02' E 023°36'0 0.0
2015-May-28 14:33N 38°01' E 023°35'3 2.8
2015-May-28 13:33N 38°01' E 023°32'3 3.2
2015-May-28 12:33N 37°58' E 023°33'6 6.4
2015-May-28 11:33N 37°53' E 023°38'9 9.3
2015-May-28 10:33N 37°45' E 023°43'106 9.3
2015-May-27 23:09N 36°41' E 025°28'6 9.4
2015-May-27 22:33N 36°35' E 025°30'9 9.2
2015-May-27 21:33N 36°26' E 025°33'70 1.9
2015-May-26 09:06N 35°21' E 025°03'4 6.6
2015-May-26 08:33N 35°25' E 025°04'9 9.2
2015-May-26 07:33N 35°33' E 024°60'10 9.6
2015-May-26 06:30N 35°42' E 024°54'10 9.7
2015-May-26 05:28N 35°51' E 024°48'110 9.2
2015-May-25 17:33N 37°30' E 023°48'9 9.3
2015-May-25 16:33N 37°38' E 023°43'9 8.8
2015-May-25 15:33N 37°46' E 023°39'9 8.9
2015-May-25 14:33N 37°55' E 023°37'7 5.6
2015-May-25 13:19N 38°01' E 023°32'2 2.2
2015-May-25 12:27N 38°01' E 023°35'1 0.1
2015-May-24 21:24N 38°02' E 023°36'2 0.5
2015-May-24 17:18N 38°01' E 023°33'5 6.2
2015-May-24 16:33N 37°57' E 023°36'9 9.3
2015-May-24 15:33N 37°48' E 023°41'153 7.6
2015-May-23 19:31N 35°30' E 025°02'8 7.4
2015-May-23 18:22N 35°21' E 025°03'0 0.0
2015-May-23 03:33N 35°21' E 025°03'0 0.1
2015-May-23 02:33N 35°21' E 025°03'0 0.0
2015-May-23 00:03N 35°21' E 025°03'0 0.0
2015-May-22 23:24N 35°21' E 025°03'0 0.0
2015-May-22 21:32N 35°21' E 025°03'0 0.0
2015-May-22 19:14N 35°21' E 025°03'0 0.0
2015-May-22 17:20N 35°21' E 025°03'0 0.0
2015-May-22 04:22N 35°21' E 025°03'5 5.6
2015-May-22 03:33N 35°25' E 025°05'10 9.8
2015-May-22 02:33N 35°34' E 024°59'1010.0
2015-May-22 01:33N 35°42' E 024°53'1010.0
2015-May-22 00:33N 35°51' E 024°48'10 9.9
2015-May-21 23:33N 35°60' E 024°41'10 9.8
2015-May-21 22:34N 36°08' E 024°35'39 9.5
2015-May-21 18:30N 36°42' E 024°13'9 9.4
2015-May-21 17:33N 36°51' E 024°08'9 9.2
2015-May-21 16:33N 36°59' E 024°04'40 9.1
2015-May-21 12:10N 37°36' E 023°45'6 9.1
2015-May-21 11:33N 37°41' E 023°42'9 9.4
2015-May-21 10:33N 37°49' E 023°37'8 8.1
2015-May-21 09:33N 37°57' E 023°34'5 4.8
2015-May-21 08:32N 38°01' E 023°32'3 1.0
2015-May-21 05:27N 38°02' E 023°36'0 0.1
2015-May-21 04:27N 38°02' E 023°36'0 0.0
2015-May-21 03:24N 38°02' E 023°36'0 0.0
2015-May-21 01:30N 38°02' E 023°36'0 0.0
2015-May-20 22:24N 38°02' E 023°36'1 0.1
2015-May-20 15:30N 38°01' E 023°35'2 1.1
2015-May-20 13:33N 38°02' E 023°32'0 0.0
2015-May-20 11:08N 38°02' E 023°32'0 0.1
2015-May-20 10:31N 38°02' E 023°32'1 1.4
2015-May-20 09:33N 38°00' E 023°33'6 6.3
2015-May-20 08:33N 37°55' E 023°37'2 1.7
2015-May-20 07:33N 37°53' E 023°38'9 9.2
2015-May-20 06:33N 37°45' E 023°43'149 9.3
2015-May-19 14:31N 35°30' E 025°01'10 2.4
2015-May-19 10:28N 35°21' E 025°03'0 0.0
2015-May-19 04:29N 35°21' E 025°03'  

Dump ship's entire track history